createdAt,value
2018-03-15T00:00:46.286Z,7.01
2018-03-15T00:03:20.015Z,6.95
2018-03-15T00:05:49.795Z,6.93
2018-03-15T00:08:19.720Z,6.84
2018-03-15T00:10:49.776Z,6.87
2018-03-15T00:13:19.740Z,6.99
2018-03-15T00:15:49.498Z,6.95
2018-03-15T00:18:19.156Z,6.99
2018-03-15T00:20:49.159Z,6.92
2018-03-15T00:23:18.922Z,6.86
2018-03-15T00:25:48.604Z,6.84
2018-03-15T00:28:18.286Z,7.00
2018-03-15T00:30:48.906Z,6.81
2018-03-15T00:33:19.305Z,6.81
2018-03-15T00:35:49.961Z,6.89
2018-03-15T00:38:20.425Z,6.78
2018-03-15T00:40:50.239Z,6.86
2018-03-15T00:43:20.297Z,6.71
2018-03-15T00:45:49.948Z,6.79
2018-03-15T00:48:19.689Z,6.78
2018-03-15T00:50:49.830Z,6.72
2018-03-15T00:53:19.556Z,6.74
2018-03-15T00:55:49.522Z,6.73
2018-03-15T00:58:19.177Z,6.75
2018-03-15T01:00:49.193Z,6.72
2018-03-15T01:03:19.191Z,6.64
2018-03-15T01:06:00.496Z,6.64
2018-03-15T01:08:31.395Z,6.67
2018-03-15T01:11:01.184Z,6.64
2018-03-15T01:13:30.828Z,6.55
2018-03-15T01:16:00.855Z,6.55
2018-03-15T01:18:30.573Z,6.57
2018-03-15T01:21:00.347Z,6.60
2018-03-15T01:23:30.157Z,6.49
2018-03-15T01:25:59.816Z,6.43
2018-03-15T01:28:30.538Z,6.43
2018-03-15T01:31:00.301Z,6.38
2018-03-15T01:33:30.089Z,6.43
2018-03-15T01:35:59.771Z,6.36
2018-03-15T01:38:29.414Z,6.57
2018-03-15T01:40:59.859Z,6.51
2018-03-15T01:43:29.701Z,6.46
2018-03-15T01:45:59.370Z,6.39
2018-03-15T01:48:30.039Z,6.43
2018-03-15T01:50:59.730Z,6.43
2018-03-15T01:53:29.811Z,6.56
2018-03-15T01:55:59.501Z,6.69
2018-03-15T01:58:29.241Z,6.66
2018-03-15T02:00:59.772Z,6.71
2018-03-15T02:03:30.410Z,6.75
2018-03-15T02:06:00.869Z,6.90
2018-03-15T02:08:30.848Z,6.89
2018-03-15T02:11:01.588Z,6.90
2018-03-15T02:13:32.237Z,6.89
2018-03-15T02:16:01.898Z,6.87
2018-03-15T02:18:31.884Z,6.86
2018-03-15T02:21:01.730Z,6.93
2018-03-15T02:23:31.519Z,6.94
2018-03-15T02:26:01.405Z,6.94
2018-03-15T02:28:31.087Z,7.02
2018-03-15T02:31:00.785Z,7.13
2018-03-15T02:33:31.093Z,7.03
2018-03-15T02:36:01.053Z,7.06
2018-03-15T02:38:31.412Z,6.92
2018-03-15T02:41:01.185Z,6.98
2018-03-15T02:43:31.864Z,6.94
2018-03-15T02:46:01.607Z,6.95
2018-03-15T02:48:32.867Z,7.02
2018-03-15T02:51:02.703Z,7.02
2018-03-15T02:53:32.783Z,7.07
2018-03-15T02:56:02.669Z,7.05
2018-03-15T02:58:32.344Z,7.09
2018-03-15T03:01:02.056Z,7.12
2018-03-15T03:03:31.844Z,7.20
2018-03-15T03:06:01.560Z,7.16
2018-03-15T03:08:32.244Z,7.09
2018-03-15T03:11:02.180Z,7.05
2018-03-15T03:13:31.896Z,7.05
2018-03-15T03:16:01.747Z,7.02
2018-03-15T03:18:32.244Z,7.03
2018-03-15T03:21:01.923Z,7.05
2018-03-15T03:23:31.625Z,7.14
2018-03-15T03:26:01.417Z,7.08
2018-03-15T03:28:31.312Z,7.00
2018-03-15T03:31:01.957Z,7.00
2018-03-15T03:33:31.989Z,7.02
2018-03-15T03:36:01.718Z,6.94
2018-03-15T03:38:31.640Z,6.99
2018-03-15T03:41:01.641Z,7.00
2018-03-15T03:43:31.423Z,7.03
2018-03-15T03:46:02.004Z,7.01
2018-03-15T03:48:31.742Z,6.98
2018-03-15T03:51:02.444Z,7.03
2018-03-15T03:53:32.459Z,7.05
2018-03-15T03:56:02.251Z,7.07
2018-03-15T03:58:32.015Z,6.98
2018-03-15T04:01:01.820Z,6.96
2018-03-15T04:03:31.773Z,6.93
2018-03-15T04:06:01.561Z,6.91
2018-03-15T04:08:31.329Z,6.90
2018-03-15T04:11:01.305Z,6.90
2018-03-15T04:13:31.892Z,7.01
2018-03-15T04:16:01.609Z,6.92
2018-03-15T04:18:31.388Z,6.92
2018-03-15T04:21:01.240Z,6.99
2018-03-15T04:23:30.940Z,6.90
2018-03-15T04:26:00.721Z,6.90
2018-03-15T04:28:30.544Z,6.97
2018-03-15T04:31:01.731Z,6.96
2018-03-15T04:33:31.472Z,6.94
2018-03-15T04:36:01.216Z,6.90
2018-03-15T04:38:31.024Z,6.99
2018-03-15T04:41:00.692Z,6.91
2018-03-15T04:43:31.204Z,6.80
2018-03-15T04:46:00.999Z,6.83
2018-03-15T04:48:30.732Z,6.87
2018-03-15T04:51:01.224Z,6.99
2018-03-15T04:53:31.068Z,6.79
2018-03-15T04:56:00.879Z,6.77
2018-03-15T04:58:30.552Z,6.81
2018-03-15T05:01:00.253Z,6.75
2018-03-15T05:03:30.339Z,6.71
2018-03-15T05:06:00.864Z,6.86
2018-03-15T05:08:31.630Z,6.82
2018-03-15T05:11:01.396Z,6.80
2018-03-15T05:13:31.269Z,6.78
2018-03-15T05:16:07.538Z,6.66
2018-03-15T05:18:37.364Z,6.70
2018-03-15T05:21:07.167Z,6.63
2018-03-15T05:23:36.938Z,6.65
2018-03-15T05:26:07.372Z,6.78
2018-03-15T05:28:37.919Z,6.71
2018-03-15T05:31:07.807Z,6.64
2018-03-15T05:33:38.375Z,6.75
2018-03-15T05:36:08.086Z,6.77
2018-03-15T05:38:37.848Z,6.70
2018-03-15T05:41:07.588Z,6.68
2018-03-15T05:43:37.337Z,6.73
2018-03-15T05:46:07.336Z,6.64
2018-03-15T05:48:37.032Z,6.68
2018-03-15T05:51:06.899Z,6.61
2018-03-15T05:53:37.497Z,6.57
2018-03-15T05:56:07.488Z,6.64
2018-03-15T05:58:37.809Z,6.61
2018-03-15T06:01:08.488Z,6.73
2018-03-15T06:03:38.276Z,6.75
2018-03-15T06:06:08.105Z,6.78
2018-03-15T06:08:37.856Z,6.70
2018-03-15T06:11:07.825Z,6.73
2018-03-15T06:13:37.510Z,6.87
2018-03-15T06:16:08.134Z,6.99
2018-03-15T06:18:38.673Z,6.95
2018-03-15T06:21:08.796Z,7.01
2018-03-15T06:23:38.497Z,7.08
2018-03-15T06:26:09.832Z,7.05
2018-03-15T06:28:40.450Z,7.23
2018-03-15T06:31:10.863Z,7.23
2018-03-15T06:33:40.645Z,7.07
2018-03-15T06:36:10.455Z,6.90
2018-03-15T06:38:40.316Z,6.82
2018-03-15T06:41:10.136Z,6.69
2018-03-15T06:43:39.937Z,6.58
2018-03-15T06:46:09.793Z,6.60
2018-03-15T06:48:39.531Z,6.49
2018-03-15T06:51:09.306Z,6.56
2018-03-15T06:53:40.128Z,6.73
2018-03-15T06:56:09.966Z,6.99
2018-03-15T06:58:39.730Z,7.07
2018-03-15T07:01:09.843Z,7.10
2018-03-15T07:03:39.857Z,7.22
2018-03-15T07:06:09.596Z,7.31
2018-03-15T07:08:39.702Z,7.48
2018-03-15T07:11:09.619Z,7.49
2018-03-15T07:13:39.508Z,7.44
2018-03-15T07:16:09.491Z,7.41
2018-03-15T07:18:39.304Z,7.19
2018-03-15T07:21:09.141Z,7.19
2018-03-15T07:23:38.933Z,7.43
2018-03-15T07:26:09.796Z,7.53
2018-03-15T07:28:39.597Z,7.84
2018-03-15T07:31:09.525Z,8.04
2018-03-15T07:33:40.259Z,8.01
2018-03-15T07:36:09.952Z,8.21
2018-03-15T07:38:39.662Z,8.02
2018-03-15T07:41:09.389Z,8.13
2018-03-15T07:43:39.353Z,8.19
2018-03-15T07:46:10.097Z,8.27
2018-03-15T07:48:40.655Z,8.45
2018-03-15T07:51:10.520Z,8.49
2018-03-15T07:53:40.248Z,8.59
2018-03-15T07:56:10.733Z,8.71
2018-03-15T07:58:40.575Z,8.92
2018-03-15T08:01:10.323Z,8.89
2018-03-15T08:03:40.308Z,9.03
2018-03-15T08:06:10.252Z,9.21
2018-03-15T08:08:40.876Z,9.36
2018-03-15T08:11:11.688Z,9.53
2018-03-15T08:13:41.412Z,9.55
2018-03-15T08:16:12.348Z,9.64
2018-03-15T08:18:42.063Z,9.82
2018-03-15T08:21:12.038Z,10.09
2018-03-15T08:23:41.816Z,10.27
2018-03-15T08:26:12.374Z,10.48
2018-03-15T08:28:42.199Z,10.47
2018-03-15T08:31:11.972Z,10.65
2018-03-15T08:33:42.437Z,10.77
2018-03-15T08:36:12.433Z,10.79
2018-03-15T08:38:42.299Z,10.86
2018-03-15T08:41:12.249Z,10.90
2018-03-15T08:43:42.803Z,11.05
2018-03-15T08:46:12.971Z,11.08
2018-03-15T08:48:43.169Z,11.01
2018-03-15T08:51:13.007Z,11.16
2018-03-15T08:53:42.821Z,11.28
2018-03-15T08:56:12.743Z,11.48
2018-03-15T08:58:42.526Z,11.52
2018-03-15T09:01:12.272Z,11.55
2018-03-15T09:03:42.716Z,11.68
2018-03-15T09:06:12.505Z,11.81
2018-03-15T09:08:42.524Z,11.93
2018-03-15T09:11:12.948Z,11.99
2018-03-15T09:13:42.644Z,12.01
2018-03-15T09:16:12.561Z,12.08
2018-03-15T09:18:42.413Z,12.33
2018-03-15T09:21:13.684Z,12.44
2018-03-15T09:23:43.657Z,12.53
2018-03-15T09:26:14.191Z,12.52
2018-03-15T09:28:44.789Z,12.47
2018-03-15T09:31:14.468Z,12.51
2018-03-15T09:33:44.180Z,12.50
2018-03-15T09:36:14.348Z,12.52
2018-03-15T09:38:44.136Z,12.65
2018-03-15T09:41:14.061Z,12.75
2018-03-15T09:43:43.899Z,12.70
2018-03-15T09:46:14.510Z,12.76
2018-03-15T09:48:44.275Z,12.79
2018-03-15T09:51:14.158Z,12.85
2018-03-15T09:53:44.262Z,12.94
2018-03-15T09:56:13.943Z,13.02
2018-03-15T09:58:43.732Z,13.07
2018-03-15T10:01:13.954Z,13.13
2018-03-15T10:03:43.887Z,13.07
2018-03-15T10:06:13.816Z,13.05
2018-03-15T10:08:43.534Z,13.25
2018-03-15T10:11:13.206Z,13.29
2018-03-15T10:13:43.077Z,13.37
2018-03-15T10:16:12.824Z,13.36
2018-03-15T10:18:43.004Z,13.50
2018-03-15T10:21:12.929Z,13.49
2018-03-15T10:23:42.749Z,13.55
2018-03-15T10:26:12.813Z,13.57
2018-03-15T10:28:43.485Z,13.52
2018-03-15T10:31:13.292Z,13.62
2018-03-15T10:33:43.187Z,13.61
2018-03-15T10:36:12.993Z,13.58
2018-03-15T10:38:42.861Z,13.61
2018-03-15T10:41:12.599Z,13.54
2018-03-15T10:43:42.413Z,13.60
2018-03-15T10:46:12.332Z,13.68
2018-03-15T10:48:42.238Z,13.62
2018-03-15T10:51:12.031Z,13.76
2018-03-15T10:53:41.889Z,13.84
2018-03-15T10:56:18.325Z,13.95
2018-03-15T10:58:48.176Z,13.81
2018-03-15T11:01:22.143Z,13.78
2018-03-15T11:03:52.560Z,13.78
2018-03-15T11:06:27.172Z,13.73
2018-03-15T11:08:59.105Z,13.81
2018-03-15T11:11:28.868Z,13.96
2018-03-15T11:13:58.776Z,14.06
2018-03-15T11:16:28.708Z,14.05
2018-03-15T11:18:58.602Z,14.25
2018-03-15T11:21:29.404Z,14.36
2018-03-15T11:23:59.250Z,14.38
2018-03-15T11:26:29.721Z,14.33
2018-03-15T11:28:59.655Z,14.41
2018-03-15T11:31:29.358Z,14.37
2018-03-15T11:33:59.136Z,14.51
2018-03-15T11:36:29.008Z,14.60
2018-03-15T11:38:59.034Z,14.62
2018-03-15T11:41:29.569Z,14.78
2018-03-15T11:44:00.202Z,14.83
2018-03-15T11:46:29.956Z,14.86
2018-03-15T11:48:59.772Z,14.92
2018-03-15T11:51:29.608Z,14.96
2018-03-15T11:53:59.437Z,14.99
2018-03-15T11:56:29.348Z,14.92
2018-03-15T11:58:59.729Z,14.94
2018-03-15T12:01:29.472Z,14.99
2018-03-15T12:03:59.328Z,15.04
2018-03-15T12:06:29.859Z,14.98
2018-03-15T12:08:59.673Z,15.08
2018-03-15T12:11:30.231Z,15.03
2018-03-15T12:14:00.622Z,15.11
2018-03-15T12:16:30.441Z,15.13
2018-03-15T12:19:00.916Z,15.29
2018-03-15T12:21:30.868Z,15.22
2018-03-15T12:24:00.862Z,15.35
2018-03-15T12:26:30.593Z,15.49
2018-03-15T12:29:01.035Z,15.42
2018-03-15T12:31:31.608Z,15.32
2018-03-15T12:34:01.433Z,15.44
2018-03-15T12:36:31.197Z,15.41
2018-03-15T12:39:02.138Z,15.57
2018-03-15T12:41:31.956Z,15.63
2018-03-15T12:44:02.869Z,15.56
2018-03-15T12:46:33.041Z,15.54
2018-03-15T12:49:02.996Z,15.58
2018-03-15T12:51:33.040Z,15.76
2018-03-15T12:54:03.552Z,15.73
2018-03-15T12:56:33.305Z,15.66
2018-03-15T12:59:03.198Z,15.73
2018-03-15T13:01:33.716Z,15.68
2018-03-15T13:04:04.277Z,15.68
2018-03-15T13:06:34.298Z,15.77
2018-03-15T13:09:04.432Z,15.65
2018-03-15T13:11:34.125Z,15.64
2018-03-15T13:14:03.961Z,15.81
2018-03-15T13:16:33.625Z,15.87
2018-03-15T13:19:04.200Z,15.85
2018-03-15T13:21:33.983Z,15.86
2018-03-15T13:24:03.705Z,15.94
2018-03-15T13:26:33.539Z,15.95
2018-03-15T13:29:03.316Z,16.00
2018-03-15T13:31:33.256Z,15.73
2018-03-15T13:34:03.116Z,15.59
2018-03-15T13:36:33.816Z,15.68
2018-03-15T13:39:03.973Z,15.69
2018-03-15T13:41:33.690Z,15.69
2018-03-15T13:44:04.824Z,15.54
2018-03-15T13:46:34.715Z,15.48
2018-03-15T13:49:04.599Z,15.52
2018-03-15T13:51:34.545Z,15.50
2018-03-15T13:54:04.596Z,15.32
2018-03-15T13:56:35.146Z,15.22
2018-03-15T13:59:04.959Z,15.25
2018-03-15T14:01:34.812Z,15.26
2018-03-15T14:04:04.786Z,15.19
2018-03-15T14:06:34.812Z,15.14
2018-03-15T14:09:05.105Z,15.14
2018-03-15T14:11:35.317Z,15.02
2018-03-15T14:14:05.096Z,15.04
2018-03-15T14:16:34.860Z,15.02
2018-03-15T14:19:04.673Z,15.08
2018-03-15T14:21:35.349Z,15.03
2018-03-15T14:24:05.617Z,14.92
2018-03-15T14:26:36.117Z,14.84
2018-03-15T14:29:06.011Z,14.78
2018-03-15T14:31:35.815Z,14.77
2018-03-15T14:34:05.919Z,14.69
2018-03-15T14:36:35.945Z,14.63
2018-03-15T14:39:06.503Z,14.54
2018-03-15T14:41:36.209Z,14.46
2018-03-15T14:44:06.021Z,14.34
2018-03-15T14:46:35.873Z,14.44
2018-03-15T14:49:05.757Z,14.50
2018-03-15T14:51:35.778Z,14.49
2018-03-15T14:54:05.700Z,14.50
2018-03-15T14:56:35.651Z,14.50
2018-03-15T14:59:06.432Z,14.48
2018-03-15T15:01:36.524Z,14.43
2018-03-15T15:04:06.765Z,14.48
2018-03-15T15:06:36.708Z,14.48
2018-03-15T15:09:07.241Z,14.43
2018-03-15T15:11:37.024Z,14.34
2018-03-15T15:14:06.909Z,14.30
2018-03-15T15:16:37.570Z,14.26
2018-03-15T15:19:07.433Z,14.24
2018-03-15T15:21:37.301Z,14.28
2018-03-15T15:24:07.081Z,14.30
2018-03-15T15:26:37.697Z,14.33
2018-03-15T15:29:07.509Z,14.38
2018-03-15T15:31:37.273Z,14.34
2018-03-15T15:34:07.240Z,14.45
2018-03-15T15:36:37.039Z,14.52
2018-03-15T15:39:07.238Z,14.51
2018-03-15T15:41:37.097Z,14.53
2018-03-15T15:44:07.584Z,14.61
2018-03-15T15:46:37.324Z,14.63
2018-03-15T15:49:07.212Z,14.65
2018-03-15T15:51:37.241Z,14.51
2018-03-15T15:54:07.148Z,14.46
2018-03-15T15:56:36.984Z,14.43
2018-03-15T15:59:07.228Z,14.40
2018-03-15T16:01:40.752Z,14.40
2018-03-15T16:04:10.566Z,14.29
2018-03-15T16:06:40.346Z,14.28
2018-03-15T16:09:11.116Z,14.22
2018-03-15T16:11:41.155Z,14.18
2018-03-15T16:14:10.865Z,14.15
2018-03-15T16:16:40.764Z,14.08
2018-03-15T16:19:10.530Z,14.04
2018-03-15T16:21:41.199Z,14.01
2018-03-15T16:24:11.180Z,13.94
2018-03-15T16:26:41.818Z,13.95
2018-03-15T16:29:12.933Z,13.85
2018-03-15T16:31:42.731Z,13.80
2018-03-15T16:34:12.574Z,13.74
2018-03-15T16:36:42.546Z,13.72
2018-03-15T16:39:12.353Z,13.73
2018-03-15T16:41:42.886Z,13.71
2018-03-15T16:44:12.881Z,13.62
2018-03-15T16:46:42.828Z,13.51
2018-03-15T16:49:12.665Z,13.46
2018-03-15T16:51:42.588Z,13.40
2018-03-15T16:54:13.254Z,13.34
2018-03-15T16:56:43.395Z,13.27
2018-03-15T16:59:13.329Z,13.24
2018-03-15T17:01:43.367Z,13.26
2018-03-15T17:04:13.213Z,13.24
2018-03-15T17:06:42.965Z,13.15
2018-03-15T17:09:12.756Z,13.15
2018-03-15T17:11:42.595Z,13.17
2018-03-15T17:14:12.441Z,13.09
2018-03-15T17:16:42.153Z,13.00
2018-03-15T17:19:12.139Z,12.92
2018-03-15T17:21:41.856Z,12.93
2018-03-15T17:24:11.703Z,12.90
2018-03-15T17:26:42.309Z,12.94
2018-03-15T17:29:12.057Z,12.84
2018-03-15T17:31:42.625Z,12.84
2018-03-15T17:34:12.433Z,12.82
2018-03-15T17:36:42.285Z,12.76
2018-03-15T17:39:12.320Z,12.74
2018-03-15T17:41:42.874Z,12.84
2018-03-15T17:44:12.716Z,12.85
2018-03-15T17:46:42.543Z,12.78
2018-03-15T17:49:12.444Z,12.81
2018-03-15T17:51:42.442Z,12.69
2018-03-15T17:54:12.729Z,12.72
2018-03-15T17:56:43.325Z,12.73
2018-03-15T17:59:13.096Z,12.60
2018-03-15T18:01:42.870Z,12.56
2018-03-15T18:04:12.885Z,12.65
2018-03-15T18:06:42.856Z,12.66
2018-03-15T18:09:12.877Z,12.60
2018-03-15T18:11:43.045Z,12.57
2018-03-15T18:14:13.116Z,12.69
2018-03-15T18:16:43.799Z,12.68
2018-03-15T18:19:15.285Z,12.57
2018-03-15T18:21:45.105Z,12.63
2018-03-15T18:24:14.992Z,12.58
2018-03-15T18:26:45.716Z,12.66
2018-03-15T18:29:15.567Z,12.58
2018-03-15T18:31:45.349Z,12.56
2018-03-15T18:34:15.882Z,12.53
2018-03-15T18:36:46.887Z,12.45
2018-03-15T18:39:16.944Z,12.37
2018-03-15T18:41:47.556Z,12.38
2018-03-15T18:44:18.243Z,12.44
2018-03-15T18:46:48.192Z,12.44
2018-03-15T18:49:17.941Z,12.49
2018-03-15T18:51:48.581Z,12.45
2018-03-15T18:54:18.789Z,12.57
2018-03-15T18:56:49.324Z,12.53
2018-03-15T18:59:20.126Z,12.43
2018-03-15T19:01:49.961Z,12.49
2018-03-15T19:04:19.806Z,12.49
2018-03-15T19:06:49.542Z,12.48
2018-03-15T19:09:19.346Z,12.49
2018-03-15T19:11:49.205Z,12.48
2018-03-15T19:14:19.128Z,12.43
2018-03-15T19:16:49.772Z,12.37
2018-03-15T19:19:19.626Z,12.41
2018-03-15T19:21:49.719Z,12.40
2018-03-15T19:24:19.748Z,12.37
2018-03-15T19:26:49.683Z,12.34
2018-03-15T19:29:19.467Z,12.33
2018-03-15T19:31:49.293Z,12.19
2018-03-15T19:34:19.061Z,12.04
2018-03-15T19:36:48.913Z,11.95
2018-03-15T19:39:18.664Z,11.88
2018-03-15T19:41:48.536Z,11.81
2018-03-15T19:44:18.314Z,11.64
2018-03-15T19:46:48.138Z,11.57
2018-03-15T19:49:18.651Z,11.48
2018-03-15T19:51:48.691Z,11.42
2018-03-15T19:54:19.335Z,11.37
2018-03-15T19:56:49.332Z,11.35
2018-03-15T19:59:19.998Z,11.30
2018-03-15T20:01:52.549Z,11.24
2018-03-15T20:04:23.076Z,11.23
2018-03-15T20:06:53.761Z,11.20
2018-03-15T20:09:23.514Z,11.19
2018-03-15T20:11:53.290Z,11.18
2018-03-15T20:14:23.067Z,11.11
2018-03-15T20:16:53.605Z,11.00
2018-03-15T20:19:23.510Z,10.98
2018-03-15T20:21:55.861Z,10.87
2018-03-15T20:24:32.810Z,10.80
2018-03-15T20:27:02.598Z,10.75
2018-03-15T20:29:32.432Z,10.73
2018-03-15T20:32:02.312Z,10.67
2018-03-15T20:34:32.060Z,10.68
2018-03-15T20:37:02.083Z,10.68
2018-03-15T20:40:34.780Z,10.63
2018-03-15T20:43:04.543Z,10.56
2018-03-15T20:45:38.570Z,10.48
2018-03-15T20:49:10.921Z,10.49
2018-03-15T20:51:41.436Z,10.37
2018-03-15T20:54:12.388Z,10.31
2018-03-15T20:56:42.287Z,10.30
2018-03-15T20:59:12.176Z,10.17
2018-03-15T21:01:42.126Z,10.18
2018-03-15T21:04:12.672Z,10.12
2018-03-15T21:06:42.644Z,9.99
2018-03-15T21:09:12.412Z,10.02
2018-03-15T21:11:42.312Z,10.06
2018-03-15T21:14:12.203Z,10.00
2018-03-15T21:16:42.236Z,9.86
2018-03-15T21:19:12.925Z,9.86
2018-03-15T21:21:43.030Z,9.77
2018-03-15T21:24:12.868Z,9.61
2018-03-15T21:26:42.661Z,9.60
2018-03-15T21:29:12.702Z,9.67
2018-03-15T21:31:42.736Z,9.72
2018-03-15T21:34:13.272Z,9.67
2018-03-15T21:36:43.824Z,9.55
2018-03-15T21:39:13.764Z,9.60
2018-03-15T21:41:43.561Z,9.69
2018-03-15T21:44:13.289Z,9.68
2018-03-15T21:46:43.021Z,9.70
2018-03-15T21:49:12.956Z,9.79
2018-03-15T21:51:42.731Z,9.82
2018-03-15T21:54:12.491Z,9.81
2018-03-15T21:56:43.136Z,9.81
2018-03-15T21:59:13.864Z,9.82
2018-03-15T22:01:44.537Z,9.84
2018-03-15T22:04:14.509Z,9.92
2018-03-15T22:06:45.126Z,9.83
2018-03-15T22:09:15.429Z,9.82
2018-03-15T22:11:45.344Z,9.65
2018-03-15T22:14:15.596Z,9.66
2018-03-15T22:16:45.677Z,9.69
2018-03-15T22:19:15.632Z,9.66
2018-03-15T22:21:46.395Z,9.66
2018-03-15T22:24:17.225Z,9.70
2018-03-15T22:26:47.286Z,9.68
2018-03-15T22:29:17.228Z,9.66
2018-03-15T22:31:47.038Z,9.64
2018-03-15T22:34:17.008Z,9.62
2018-03-15T22:36:46.808Z,9.66
2018-03-15T22:39:16.588Z,9.69
2018-03-15T22:41:46.517Z,9.71
2018-03-15T22:44:16.967Z,9.69
2018-03-15T22:46:46.755Z,9.74
2018-03-15T22:49:17.502Z,9.67
2018-03-15T22:51:47.506Z,9.65
2018-03-15T22:54:18.163Z,9.67
2018-03-15T22:56:48.145Z,9.69
2018-03-15T22:59:18.149Z,9.74
2018-03-15T23:01:48.693Z,9.67
2018-03-15T23:04:19.328Z,9.66
2018-03-15T23:06:49.839Z,9.67
2018-03-15T23:09:19.713Z,9.75
2018-03-15T23:11:49.497Z,9.61
2018-03-15T23:14:20.306Z,9.65
2018-03-15T23:16:50.385Z,9.63
2018-03-15T23:19:20.417Z,9.70
2018-03-15T23:21:50.206Z,9.60
2018-03-15T23:24:19.894Z,9.68
2018-03-15T23:26:50.455Z,9.59
2018-03-15T23:29:20.232Z,9.67
2018-03-15T23:31:50.917Z,9.60
2018-03-15T23:34:20.605Z,9.58
2018-03-15T23:36:50.364Z,9.70
2018-03-15T23:39:20.188Z,9.57
2018-03-15T23:41:50.057Z,9.65
2018-03-15T23:44:19.875Z,9.62
2018-03-15T23:46:49.768Z,9.48
2018-03-15T23:49:19.696Z,9.58
2018-03-15T23:51:49.501Z,9.55
2018-03-15T23:54:19.268Z,9.56
2018-03-15T23:56:49.020Z,9.51
2018-03-15T23:59:18.839Z,9.43
